Shouyoumaru — JD2564 — position and weather

sailwx.info

Track history (hours):
 
Tides and Currents Weather Stations Pressure Air Temp Water Temp Dewpoint Dewpoint Depression Visibility Wind Speed Wind Dir Waves Ship Positions

Shouyoumaru

Last reported at 2018-Jan-19 19:30 UTC. Time now 2018-Jan-19 19:47 UTC.
Position N 34°32' E 135°22'.

Length 60 m.

Type: Tanker. MMSI: 431000407.

Date/timePositionNaut miles runAvg speedWind from/ knotsBaromVisibWave heightAir tempDewpointWater temp
2018-Jan-19 19:30N 34°32' E 135°22'0 0.0
2018-Jan-19 18:57N 34°32' E 135°22'0 0.0
2018-Jan-19 18:30N 34°32' E 135°22'1 2.0
2018-Jan-19 18:00N 34°32' E 135°21'611.4
2018-Jan-19 17:30N 34°34' E 135°14'612.1
2018-Jan-19 17:00N 34°34' E 135°07'713.1
2018-Jan-19 16:30N 34°37' E 134°59'713.0
2018-Jan-19 15:59N 34°34' E 134°52'612.0
2018-Jan-19 15:30N 34°32' E 134°46'611.7
2018-Jan-19 15:00N 34°29' E 134°39'10210.1
2018-Jan-19 04:54N 34°05' E 132°39'2 0.2
2018-Jan-18 17:19N 34°04' E 132°36'114 9.7
2018-Jan-18 05:30N 34°06' E 134°55'710.7
2018-Jan-18 04:49N 34°08' E 135°03'  
2018-Jan-12 09:41N 35°02' E 139°31'410.9
2018-Jan-12 09:20N 35°04' E 139°34'411.6
2018-Jan-12 08:57N 35°06' E 139°39'511.4
2018-Jan-12 08:29N 35°10' E 139°44'611.7
2018-Jan-12 08:00N 35°15' E 139°46'612.2
2018-Jan-12 07:29N 35°20' E 139°42'611.4
2018-Jan-12 07:00N 35°26' E 139°44'712.0
2018-Jan-12 06:24N 35°30' E 139°52'612.2
2018-Jan-12 05:54N 35°32' E 139°58'512.2
2018-Jan-12 05:30N 35°35' E 140°03'3 5.2
2018-Jan-12 05:00N 35°36' E 140°06'0 0.0
2018-Jan-12 04:30N 35°36' E 140°06'0 0.0
2018-Jan-12 04:00N 35°36' E 140°06'0 0.2
2018-Jan-12 03:30N 35°36' E 140°06'17 6.1
2018-Jan-12 00:41N 35°31' E 139°46'0 0.0
2018-Jan-12 00:20N 35°31' E 139°46'0 0.0
2018-Jan-11 23:59N 35°31' E 139°46'0 0.0
2018-Jan-11 22:41N 35°31' E 139°46'0 0.1
2018-Jan-11 22:22N 35°31' E 139°46'3 7.9
2018-Jan-11 21:56N 35°30' E 139°50'0 0.5
2018-Jan-11 21:22N 35°30' E 139°50'0 0.0
2018-Jan-11 20:46N 35°30' E 139°50'0 0.0
2018-Jan-11 20:28N 35°30' E 139°50'0 0.0
2018-Jan-11 19:55N 35°30' E 139°50'0 0.0
2018-Jan-11 19:25N 35°30' E 139°50'0 0.0
2018-Jan-11 18:52N 35°30' E 139°50'0 0.1
2018-Jan-11 18:28N 35°30' E 139°50'0 0.0
2018-Jan-11 17:58N 35°30' E 139°50'0 0.0
2018-Jan-11 17:28N 35°30' E 139°50'0 0.0
2018-Jan-11 16:34N 35°30' E 139°50'0 0.1
2018-Jan-11 16:28N 35°30' E 139°50'0 0.0
2018-Jan-11 15:55N 35°30' E 139°50'0 0.0
2018-Jan-11 15:28N 35°30' E 139°50'0 0.0
2018-Jan-11 14:52N 35°30' E 139°50'0 0.0
2018-Jan-11 14:16N 35°30' E 139°50'0 0.0
2018-Jan-11 13:58N 35°30' E 139°50'0 0.0
2018-Jan-11 12:46N 35°30' E 139°50'0 0.0
2018-Jan-11 12:19N 35°30' E 139°50'0 0.0
2018-Jan-11 09:34N 35°30' E 139°50'0 0.0
2018-Jan-11 09:22N 35°30' E 139°50'10 1.7
2018-Jan-11 03:40N 35°34' E 140°01'211.1
2018-Jan-11 03:30N 35°35' E 140°03'2 4.2
2018-Jan-11 03:00N 35°36' E 140°05'0 0.0
2018-Jan-11 02:30N 35°36' E 140°05'0 0.0
2018-Jan-11 02:00N 35°36' E 140°05'0 0.0
2018-Jan-11 01:30N 35°36' E 140°05'0 0.0
2018-Jan-11 01:00N 35°36' E 140°05'0 0.0
2018-Jan-11 00:30N 35°36' E 140°05'0 0.0
2018-Jan-11 00:00N 35°36' E 140°05'0 0.0
2018-Jan-10 23:30N 35°36' E 140°05'3 6.4
2018-Jan-10 23:00N 35°34' E 140°02'610.8
2018-Jan-10 22:27N 35°30' E 139°57'2 2.6
2018-Jan-10 21:39N 35°29' E 139°55'0 0.0
2018-Jan-10 21:30N 35°29' E 139°55'0 0.0
2018-Jan-10 21:00N 35°29' E 139°55'0 0.0
2018-Jan-10 20:30N 35°29' E 139°55'0 0.0
2018-Jan-10 20:00N 35°29' E 139°55'0 0.0
2018-Jan-10 19:30N 35°29' E 139°55'0 0.0
2018-Jan-10 18:54N 35°29' E 139°55'0 0.0
2018-Jan-10 18:30N 35°29' E 139°55'0 0.1
2018-Jan-10 18:00N 35°29' E 139°55'0 0.1
2018-Jan-10 17:21N 35°29' E 139°55'0 0.0
2018-Jan-10 16:39N 35°29' E 139°55'0 0.0
2018-Jan-10 16:30N 35°29' E 139°55'0 0.0
2018-Jan-10 15:57N 35°29' E 139°55'0 0.0
2018-Jan-10 15:27N 35°29' E 139°55'0 0.0
2018-Jan-10 14:54N 35°29' E 139°55'0 0.0
2018-Jan-10 14:24N 35°29' E 139°55'0 0.0
2018-Jan-10 13:57N 35°29' E 139°55'0 0.0
2018-Jan-10 13:27N 35°29' E 139°55'0 0.0
2018-Jan-10 12:45N 35°29' E 139°55'0 0.0
2018-Jan-10 12:24N 35°29' E 139°55'0 0.0
2018-Jan-10 11:51N 35°29' E 139°55'0 0.0
2018-Jan-10 11:30N 35°29' E 139°55'0 0.0
2018-Jan-10 11:00N 35°29' E 139°55'0 0.0
2018-Jan-10 10:09N 35°29' E 139°55'0 1.1
2018-Jan-10 09:58N 35°29' E 139°55'510.3
2018-Jan-10 09:30N 35°27' E 139°50'510.6
2018-Jan-10 09:00N 35°22' E 139°46'5 9.8
2018-Jan-10 08:30N 35°18' E 139°45'5 9.7
2018-Jan-10 08:00N 35°13' E 139°47'510.5
2018-Jan-10 07:30N 35°08' E 139°46'510.7
2018-Jan-10 07:00N 35°03' E 139°43'510.8
2018-Jan-10 06:30N 35°00' E 139°37'2512.0
2018-Jan-10 04:27N 34°46' E 139°13'611.1
2018-Jan-10 03:57N 34°42' E 139°08'610.7
2018-Jan-10 03:23N 34°38' E 139°02'1810.1
2018-Jan-10 01:35N 34°38' E 138°40'2 7.9
2018-Jan-10 01:18N 34°40' E 138°39'5 8.9
2018-Jan-10 00:44N 34°45' E 138°38'2 8.9
2018-Jan-10 00:29N 34°47' E 138°38'6 9.3
2018-Jan-09 23:50N 34°53' E 138°36'5 9.4
2018-Jan-09 23:21N 34°57' E 138°34'3 9.6
2018-Jan-09 23:00N 35°00' E 138°33'2 4.3
2018-Jan-09 22:30N 35°01' E 138°31'0 0.0
2018-Jan-09 22:00N 35°01' E 138°31'0 0.0
2018-Jan-09 21:29N 35°01' E 138°31'0 0.0
2018-Jan-09 20:58N 35°01' E 138°31'0 0.0
2018-Jan-09 20:30N 35°01' E 138°31'0 0.0
2018-Jan-09 20:00N 35°01' E 138°31'  
Track history (hours):
 
Tides and Currents Weather Stations Pressure Air Temp Water Temp Dewpoint Dewpoint Depression Visibility Wind Speed Wind Dir Waves Ship Positions

Shouyoumaru

Last reported at 2018-Jan-19 19:30 UTC. Time now 2018-Jan-19 19:47 UTC.
Position N 34°32' E 135°22'.

Length 60 m.

Type: Tanker. MMSI: 431000407.

Date/timePositionNaut miles runAvg speedWind from/ knotsBaromVisibWave heightAir tempDewpointWater temp
2018-Jan-19 19:30N 34°32' E 135°22'0 0.0
2018-Jan-19 18:57N 34°32' E 135°22'0 0.0
2018-Jan-19 18:30N 34°32' E 135°22'1 2.0
2018-Jan-19 18:00N 34°32' E 135°21'611.4
2018-Jan-19 17:30N 34°34' E 135°14'612.1
2018-Jan-19 17:00N 34°34' E 135°07'713.1
2018-Jan-19 16:30N 34°37' E 134°59'713.0
2018-Jan-19 15:59N 34°34' E 134°52'612.0
2018-Jan-19 15:30N 34°32' E 134°46'611.7
2018-Jan-19 15:00N 34°29' E 134°39'10210.1
2018-Jan-19 04:54N 34°05' E 132°39'2 0.2
2018-Jan-18 17:19N 34°04' E 132°36'114 9.7
2018-Jan-18 05:30N 34°06' E 134°55'710.7
2018-Jan-18 04:49N 34°08' E 135°03'  
2018-Jan-12 09:41N 35°02' E 139°31'410.9
2018-Jan-12 09:20N 35°04' E 139°34'411.6
2018-Jan-12 08:57N 35°06' E 139°39'511.4
2018-Jan-12 08:29N 35°10' E 139°44'611.7
2018-Jan-12 08:00N 35°15' E 139°46'612.2
2018-Jan-12 07:29N 35°20' E 139°42'611.4
2018-Jan-12 07:00N 35°26' E 139°44'712.0
2018-Jan-12 06:24N 35°30' E 139°52'612.2
2018-Jan-12 05:54N 35°32' E 139°58'512.2
2018-Jan-12 05:30N 35°35' E 140°03'3 5.2
2018-Jan-12 05:00N 35°36' E 140°06'0 0.0
2018-Jan-12 04:30N 35°36' E 140°06'0 0.0
2018-Jan-12 04:00N 35°36' E 140°06'0 0.2
2018-Jan-12 03:30N 35°36' E 140°06'17 6.1
2018-Jan-12 00:41N 35°31' E 139°46'0 0.0
2018-Jan-12 00:20N 35°31' E 139°46'0 0.0
2018-Jan-11 23:59N 35°31' E 139°46'0 0.0
2018-Jan-11 22:41N 35°31' E 139°46'0 0.1
2018-Jan-11 22:22N 35°31' E 139°46'3 7.9
2018-Jan-11 21:56N 35°30' E 139°50'0 0.5
2018-Jan-11 21:22N 35°30' E 139°50'0 0.0
2018-Jan-11 20:46N 35°30' E 139°50'0 0.0
2018-Jan-11 20:28N 35°30' E 139°50'0 0.0
2018-Jan-11 19:55N 35°30' E 139°50'0 0.0
2018-Jan-11 19:25N 35°30' E 139°50'0 0.0
2018-Jan-11 18:52N 35°30' E 139°50'0 0.1
2018-Jan-11 18:28N 35°30' E 139°50'0 0.0
2018-Jan-11 17:58N 35°30' E 139°50'0 0.0
2018-Jan-11 17:28N 35°30' E 139°50'0 0.0
2018-Jan-11 16:34N 35°30' E 139°50'0 0.1
2018-Jan-11 16:28N 35°30' E 139°50'0 0.0
2018-Jan-11 15:55N 35°30' E 139°50'0 0.0
2018-Jan-11 15:28N 35°30' E 139°50'0 0.0
2018-Jan-11 14:52N 35°30' E 139°50'0 0.0
2018-Jan-11 14:16N 35°30' E 139°50'0 0.0
2018-Jan-11 13:58N 35°30' E 139°50'0 0.0
2018-Jan-11 12:46N 35°30' E 139°50'0 0.0
2018-Jan-11 12:19N 35°30' E 139°50'0 0.0
2018-Jan-11 09:34N 35°30' E 139°50'0 0.0
2018-Jan-11 09:22N 35°30' E 139°50'10 1.7
2018-Jan-11 03:40N 35°34' E 140°01'211.1
2018-Jan-11 03:30N 35°35' E 140°03'2 4.2
2018-Jan-11 03:00N 35°36' E 140°05'0 0.0
2018-Jan-11 02:30N 35°36' E 140°05'0 0.0
2018-Jan-11 02:00N 35°36' E 140°05'0 0.0
2018-Jan-11 01:30N 35°36' E 140°05'0 0.0
2018-Jan-11 01:00N 35°36' E 140°05'0 0.0
2018-Jan-11 00:30N 35°36' E 140°05'0 0.0
2018-Jan-11 00:00N 35°36' E 140°05'0 0.0
2018-Jan-10 23:30N 35°36' E 140°05'3 6.4
2018-Jan-10 23:00N 35°34' E 140°02'610.8
2018-Jan-10 22:27N 35°30' E 139°57'2 2.6
2018-Jan-10 21:39N 35°29' E 139°55'0 0.0
2018-Jan-10 21:30N 35°29' E 139°55'0 0.0
2018-Jan-10 21:00N 35°29' E 139°55'0 0.0
2018-Jan-10 20:30N 35°29' E 139°55'0 0.0
2018-Jan-10 20:00N 35°29' E 139°55'0 0.0
2018-Jan-10 19:30N 35°29' E 139°55'0 0.0
2018-Jan-10 18:54N 35°29' E 139°55'0 0.0
2018-Jan-10 18:30N 35°29' E 139°55'0 0.1
2018-Jan-10 18:00N 35°29' E 139°55'0 0.1
2018-Jan-10 17:21N 35°29' E 139°55'0 0.0
2018-Jan-10 16:39N 35°29' E 139°55'0 0.0
2018-Jan-10 16:30N 35°29' E 139°55'0 0.0
2018-Jan-10 15:57N 35°29' E 139°55'0 0.0
2018-Jan-10 15:27N 35°29' E 139°55'0 0.0
2018-Jan-10 14:54N 35°29' E 139°55'0 0.0
2018-Jan-10 14:24N 35°29' E 139°55'0 0.0
2018-Jan-10 13:57N 35°29' E 139°55'0 0.0
2018-Jan-10 13:27N 35°29' E 139°55'0 0.0
2018-Jan-10 12:45N 35°29' E 139°55'0 0.0
2018-Jan-10 12:24N 35°29' E 139°55'0 0.0
2018-Jan-10 11:51N 35°29' E 139°55'0 0.0
2018-Jan-10 11:30N 35°29' E 139°55'0 0.0
2018-Jan-10 11:00N 35°29' E 139°55'0 0.0
2018-Jan-10 10:09N 35°29' E 139°55'0 1.1
2018-Jan-10 09:58N 35°29' E 139°55'510.3
2018-Jan-10 09:30N 35°27' E 139°50'510.6
2018-Jan-10 09:00N 35°22' E 139°46'5 9.8
2018-Jan-10 08:30N 35°18' E 139°45'5 9.7
2018-Jan-10 08:00N 35°13' E 139°47'510.5
2018-Jan-10 07:30N 35°08' E 139°46'510.7
2018-Jan-10 07:00N 35°03' E 139°43'510.8
2018-Jan-10 06:30N 35°00' E 139°37'2512.0
2018-Jan-10 04:27N 34°46' E 139°13'611.1
2018-Jan-10 03:57N 34°42' E 139°08'610.7
2018-Jan-10 03:23N 34°38' E 139°02'1810.1
2018-Jan-10 01:35N 34°38' E 138°40'2 7.9
2018-Jan-10 01:18N 34°40' E 138°39'5 8.9
2018-Jan-10 00:44N 34°45' E 138°38'2 8.9
2018-Jan-10 00:29N 34°47' E 138°38'6 9.3
2018-Jan-09 23:50N 34°53' E 138°36'5 9.4
2018-Jan-09 23:21N 34°57' E 138°34'3 9.6
2018-Jan-09 23:00N 35°00' E 138°33'2 4.3
2018-Jan-09 22:30N 35°01' E 138°31'0 0.0
2018-Jan-09 22:00N 35°01' E 138°31'0 0.0
2018-Jan-09 21:29N 35°01' E 138°31'0 0.0
2018-Jan-09 20:58N 35°01' E 138°31'0 0.0
2018-Jan-09 20:30N 35°01' E 138°31'0 0.0
2018-Jan-09 20:00N 35°01' E 138°31'  

Dump ship's entire track history